메인 페이지
METAR-TAF:

METAR-TAF

공항 :

Little Rock National Airport (Adams Field)

리틀록, 아칸소, 미국

위도: 34-43-36N, 경도: 092-14-10W, 고도: 79m

현재 날씨관측

예보는 11분 전, 14:53시(UTC)에 발표되었습니다.
서남서7kt
온도 19°C
습도 83%
기압 1006 hPa
시정: 16.1km
고도 1000ft 상공 구름 조금
고도 1500ft 상공 흐림

METAR: KLIT 251453Z 24007KT 10SM FEW010 OVC015 19/16 A2971 RMK AO2 SLP061 T01890161 51005

시각: 10:04 (15:04 UTC)

예보

예보는 41분 전, 14:23시(UTC)에 발표되었습니다.
예보 대상 시간: 25일 14시부터 26일 12시까지 (UTC)
서남서5kt
시정: 10km
고도 800ft 상공 구름 보통
고도 1500ft 상공 구름 많음
시계 내 소나기
일시적
25일 14시부터 25일 16시까지 (UTC)
약한소나기
25일 1600시부터 (UTC)
서남서10kt, 순간 최대 풍속 18kt
시정: 10km
고도 5000ft 상공 구름 많음
고도 10000ft 상공 흐림
약한소나기
25일 2100시부터 (UTC)
서북서10kt, 순간 최대 풍속 18kt
시정: 10km
고도 5000ft 상공 구름 많음
고도 10000ft 상공 흐림
26일 0100시부터 (UTC)
서북서10kt, 순간 최대 풍속 16kt
시정: 10km
맑음

TAF: KLIT 251423Z 2514/2612 25005KT P6SM VCSH SCT008 BKN015 TEMPO 2514/2516 -SHRA FM251600 25010G18KT P6SM -SHRA BKN050 OVC100 FM252100 30010G18KT P6SM BKN050 OVC100 FM260100 30010G16KT P6SM SKC

4,000개 이상의 공항 관측 자료 및 예보 (METAR 및 TAF 보고).

지도상에서 검색 가능한 기상관측소가 노란 점과 빨간 점으로 표시되어 있습니다.

기상관측소 명을 보려면 표시 위로 마우스를 이동하세요.

날씨 관측과 예보를 보려면 클릭하세요.

지도 변경 : 확대하려면 엑스 표시가 있는 녹색 버튼, 축소하려면 빼기 표시가 있는 녹색 버튼, 다음 페이지의 지도를 보려면 녹색 화살표를 클릭하세요.


METAR-TAF: